Licenciado Gustavo Díaz Ordaz International Airport
MMPR : now visible

Airfield :











YOU CAN JOIN US ON...

 
LOGIN :

Register | Disclaimer

   EN    FR    IT 

 









Legend :    VFR   Marginal VFR   IFR   Intensive IFR   Very Intensive IFR
Visi :
Ceiling :
>= 8 km
>= 3000ft
5 to 8 km
1000 to 3000 ft
1500m to 5 km
500 to 1000 ft
800 to 1500m
200 to 500 ft
< 800m
< 200 ft
Symbols :   Thunderstorms  Fog  Heavy snow  Heavy precipitations  Wind > 20 kt






- Airport Elevation : 23 ft
- IATA code : PVR


MMPR - Licenciado Gustavo Díaz Ordaz International

CURRENT METAR :
  • 090942Z 00000KT 10SM SKC 21/20 A2989 RMK AC NW

EXPIRED METARs :
  • 090844Z 02004KT 10SM SKC 22/21 A2989 RMK SLP129 57004 981
  • 090742Z 01006KT 10SM SKC 22/21 A2990

TAF AMD TAF MMPR
Valid from the 09 at 09:00 until the 10 at 06:00 UTC


090923Z 0909/1006 34005KT P6SM SKC TX28/0920Z TN21/0912Z
FM091800 23010KT P6SM SCT250
FM100500 34005KT P6SM SCT020



MET'MAP, your aeronautical weather chart ! - Copyright ORBIFLY December 2007 - Disclaimer

ORBIFLY MET'MAP TEAM :

Programming & Development : Alexandra Zaïnal
Concept & original design : Baudouin d'Aumeries
Assistance for programming : Marc-Olivier Méhu
Technical & hardware support : Manuel Goepfert

Contact : metmap@orbifly.com




SOURCES & CREDITS :

   NOAA       Earth
Advisory